Time;durP1;ratioP1;P1;durP2;ratioP2;P2;SDS_P1;SDS_P2;PMS_P1;PMS_P2;Temp;Humidity;BMP_temperature;BMP_pressure;BME280_temperature;BME280_humidity;BME280_pressure;Samples;Min_cycle;Max_cycle;Signal;HPM_P1;HPM_P2
2023/08/12 00:00:19;;;;;;;9.17;5.87;;;19.30;1.00;;;;;;5116624;28;20928;-50
2023/08/12 00:02:44;;;;;;;12.23;6.17;;;19.20;1.00;;;;;;5116759;28;20471;-50
2023/08/12 00:05:11;;;;;;;8.77;6.00;;;19.30;1.00;;;;;;5116438;28;20458;-50
2023/08/12 00:07:37;;;;;;;8.33;6.20;;;19.30;1.00;;;;;;5116941;28;20177;-50
2023/08/12 00:10:04;;;;;;;8.20;5.70;;;19.20;1.00;;;;;;5116581;28;20436;-51
2023/08/12 00:12:31;;;;;;;8.73;6.73;;;19.20;1.00;;;;;;5116330;28;20229;-51
2023/08/12 00:14:57;;;;;;;7.17;5.90;;;19.20;1.00;;;;;;5116625;28;20432;-50
2023/08/12 00:17:23;;;;;;;8.23;5.70;;;19.20;1.00;;;;;;5116656;28;20433;-50
2023/08/12 00:19:49;;;;;;;11.73;5.80;;;19.20;99.90;;;;;;5116441;28;20425;-50
2023/08/12 00:22:14;;;;;;;10.80;5.60;;;19.20;99.90;;;;;;5116475;28;20236;-50
2023/08/12 00:24:40;;;;;;;8.17;5.37;;;19.20;99.90;;;;;;5116247;28;20214;-50
2023/08/12 00:27:08;;;;;;;6.47;5.57;;;19.20;99.90;;;;;;5116769;28;20176;-50
2023/08/12 00:29:34;;;;;;;7.77;5.90;;;19.20;1.00;;;;;;5116290;28;20196;-50
2023/08/12 00:32:00;;;;;;;6.83;5.63;;;19.10;1.00;;;;;;5115970;28;20416;-51
2023/08/12 00:34:25;;;;;;;10.97;5.53;;;19.10;1.00;;;;;;5115813;28;20455;-51
2023/08/12 00:36:51;;;;;;;8.50;6.20;;;19.10;1.00;;;;;;5115877;28;20679;-51
2023/08/12 00:39:17;;;;;;;9.40;5.80;;;19.10;1.00;;;;;;5116048;28;20233;-50
2023/08/12 00:41:42;;;;;;;7.90;5.20;;;19.10;1.00;;;;;;5115959;28;20200;-50
2023/08/12 00:44:08;;;;;;;11.90;6.03;;;19.10;1.00;;;;;;5116001;28;20262;-50
2023/08/12 00:46:34;;;;;;;8.17;6.07;;;19.10;1.00;;;;;;5115597;28;20573;-50
2023/08/12 00:49:00;;;;;;;10.03;6.30;;;19.10;1.00;;;;;;5115738;28;20184;-50
2023/08/12 00:51:26;;;;;;;8.13;5.50;;;19.00;1.00;;;;;;5115651;28;20410;-50
2023/08/12 00:53:54;;;;;;;8.80;6.30;;;19.00;1.00;;;;;;5115538;28;20203;-51
2023/08/12 00:56:20;;;;;;;6.93;6.13;;;19.00;1.00;;;;;;5115875;28;20428;-51
2023/08/12 00:58:46;;;;;;;6.60;5.50;;;19.00;1.00;;;;;;5115740;28;20410;-51
2023/08/12 01:01:13;;;;;;;8.27;6.10;;;19.00;1.00;;;;;;5116080;28;20411;-51
2023/08/12 01:03:38;;;;;;;8.60;5.93;;;19.00;1.00;;;;;;5115424;28;20184;-51
2023/08/12 01:06:04;;;;;;;7.10;6.00;;;19.00;1.00;;;;;;5115149;28;20472;-51
2023/08/12 01:08:31;;;;;;;7.77;5.57;;;19.00;1.00;;;;;;5115517;28;20187;-51
2023/08/12 01:11:14;;;;;;;8.10;5.87;;;19.00;1.00;;;;;;5115167;28;20916;-51
2023/08/12 01:13:59;;;;;;;11.10;6.47;;;19.00;1.00;;;;;;5115511;28;20405;-50
2023/08/12 01:16:29;;;;;;;13.60;5.90;;;19.00;17.30;;;;;;5114821;28;20455;-51
2023/08/12 01:18:55;;;;;;;8.47;6.43;;;18.90;1.00;;;;;;5115321;28;20413;-51
2023/08/12 01:21:24;;;;;;;9.40;6.00;;;18.90;1.00;;;;;;5114885;28;20557;-51
2023/08/12 01:23:50;;;;;;;13.83;6.70;;;18.90;59.20;;;;;;5115279;28;20964;-51
2023/08/12 01:26:16;;;;;;;10.30;6.37;;;18.80;45.00;;;;;;5115212;28;21002;-51
2023/08/12 01:28:42;;;;;;;9.03;5.67;;;18.80;88.70;;;;;;5115001;28;20425;-50
2023/08/12 01:31:26;;;;;;;10.23;6.40;;;18.90;97.90;;;;;;5115318;28;20238;-50
2023/08/12 01:33:58;;;;;;;14.60;6.43;;;18.90;99.90;;;;;;5114365;28;21111;-51
2023/08/12 01:36:25;;;;;;;7.37;6.60;;;18.90;99.90;;;;;;5114875;28;20521;-51
2023/08/12 01:38:52;;;;;;;12.10;6.80;;;18.90;99.90;;;;;;5115311;28;20819;-51
2023/08/12 01:41:19;;;;;;;10.03;6.23;;;19.00;99.90;;;;;;5115140;28;20424;-51
2023/08/12 01:43:45;;;;;;;12.47;6.00;;;19.00;99.90;;;;;;5115195;28;20436;-51
2023/08/12 01:46:11;;;;;;;7.03;6.30;;;19.00;99.90;;;;;;5115166;28;20483;-51
2023/08/12 01:48:36;;;;;;;8.40;6.50;;;19.00;99.90;;;;;;5114721;28;20418;-51
2023/08/12 01:51:02;;;;;;;10.07;6.13;;;18.90;99.90;;;;;;5114785;28;20258;-50
2023/08/12 01:53:28;;;;;;;8.13;6.30;;;18.90;99.90;;;;;;5114737;28;20223;-51
2023/08/12 01:55:54;;;;;;;7.17;5.80;;;18.80;99.90;;;;;;5114701;28;20418;-50
2023/08/12 01:58:19;;;;;;;9.33;5.90;;;18.80;99.90;;;;;;5114305;28;20186;-50
2023/08/12 02:00:45;;;;;;;8.20;6.33;;;18.80;99.90;;;;;;5114446;28;20261;-51
2023/08/12 02:03:11;;;;;;;8.93;6.53;;;18.70;1.00;;;;;;5114637;28;20183;-50
2023/08/12 02:05:37;;;;;;;6.70;5.77;;;18.70;1.00;;;;;;5114145;28;20564;-50
2023/08/12 02:08:04;;;;;;;8.97;5.97;;;18.70;1.00;;;;;;5114492;28;20199;-50
2023/08/12 02:10:29;;;;;;;7.03;5.67;;;18.70;1.00;;;;;;5114197;28;20413;-50
2023/08/12 02:12:55;;;;;;;6.70;6.10;;;18.60;1.00;;;;;;5114616;28;20409;-51
2023/08/12 02:15:21;;;;;;;13.07;6.73;;;18.60;6.10;;;;;;5114566;28;20524;-50
2023/08/12 02:17:46;;;;;;;7.73;6.33;;;18.60;99.90;;;;;;5114352;28;20183;-50
2023/08/12 02:20:12;;;;;;;11.30;6.40;;;18.50;99.90;;;;;;5114472;28;20223;-51
2023/08/12 02:22:38;;;;;;;10.27;5.57;;;18.50;99.90;;;;;;5113936;28;20228;-51
2023/08/12 02:25:04;;;;;;;6.60;5.70;;;18.60;75.60;;;;;;5114587;28;20263;-51
2023/08/12 02:27:29;;;;;;;6.40;5.67;;;18.50;29.20;;;;;;5117387;28;20189;-51
2023/08/12 02:29:55;;;;;;;8.03;6.03;;;18.60;1.00;;;;;;5121223;28;20423;-50
2023/08/12 02:32:20;;;;;;;10.03;6.00;;;18.60;1.00;;;;;;5121139;28;20181;-50
2023/08/12 02:34:46;;;;;;;8.20;5.70;;;18.60;1.00;;;;;;5120807;28;20522;-51
2023/08/12 02:37:12;;;;;;;17.13;6.70;;;18.60;1.00;;;;;;5121104;28;20267;-50
2023/08/12 02:39:38;;;;;;;14.13;5.90;;;18.50;1.00;;;;;;5120933;28;20188;-51
2023/08/12 02:42:04;;;;;;;8.63;5.87;;;18.50;1.00;;;;;;5121056;28;20416;-50
2023/08/12 02:44:30;;;;;;;6.90;5.63;;;18.50;1.00;;;;;;5120751;28;20514;-50
2023/08/12 02:46:56;;;;;;;6.43;5.83;;;18.50;1.00;;;;;;5121283;28;20513;-51
2023/08/12 02:49:21;;;;;;;8.63;5.50;;;18.50;1.00;;;;;;5120776;28;20180;-51
2023/08/12 02:51:47;;;;;;;9.20;6.33;;;18.40;1.00;;;;;;5120910;28;20175;-51
2023/08/12 02:54:12;;;;;;;7.43;6.57;;;18.40;43.30;;;;;;5121275;28;20184;-50
2023/08/12 02:56:38;;;;;;;10.90;6.17;;;18.40;99.90;;;;;;5120673;28;20190;-51
2023/08/12 02:59:04;;;;;;;6.83;6.00;;;18.40;99.90;;;;;;5120966;28;20278;-51
2023/08/12 03:01:29;;;;;;;7.67;6.17;;;18.40;99.90;;;;;;5121023;28;20175;-50
2023/08/12 03:03:55;;;;;;;7.63;6.10;;;18.40;99.90;;;;;;5120846;28;20181;-51
2023/08/12 03:06:21;;;;;;;10.00;6.60;;;18.40;99.90;;;;;;5121171;28;20259;-51
2023/08/12 03:08:46;;;;;;;7.50;6.27;;;18.40;99.90;;;;;;5120759;28;20195;-51
2023/08/12 03:11:12;;;;;;;9.37;6.50;;;18.40;99.90;;;;;;5121097;28;20186;-50
2023/08/12 03:13:38;;;;;;;10.70;6.10;;;18.40;99.90;;;;;;5120363;28;20220;-51
2023/08/12 03:16:03;;;;;;;6.87;6.10;;;18.30;99.90;;;;;;5120707;28;20190;-50
2023/08/12 03:18:29;;;;;;;9.20;6.30;;;18.30;1.00;;;;;;5120652;28;20178;-50
2023/08/12 03:20:55;;;;;;;7.87;5.90;;;18.30;1.00;;;;;;5120389;28;20623;-50
2023/08/12 03:23:20;;;;;;;9.93;6.70;;;18.30;99.90;;;;;;5120491;28;20172;-51
2023/08/12 03:25:48;;;;;;;11.33;6.47;;;18.20;99.90;;;;;;5120767;28;20225;-51
2023/08/12 03:28:16;;;;;;;8.37;7.17;;;18.20;99.90;;;;;;5120185;28;20185;-50
2023/08/12 03:30:41;;;;;;;10.63;7.10;;;18.20;1.00;;;;;;5120524;28;20428;-50
2023/08/12 03:33:07;;;;;;;7.67;6.30;;;18.20;1.00;;;;;;5120328;28;20408;-51
2023/08/12 03:35:33;;;;;;;6.87;5.97;;;18.20;99.90;;;;;;5120197;28;20187;-51
2023/08/12 03:37:58;;;;;;;8.00;6.17;;;18.20;99.90;;;;;;5119979;28;20185;-51
2023/08/12 03:40:24;;;;;;;7.00;5.60;;;18.10;1.00;;;;;;5116645;28;20187;-50
2023/08/12 03:42:49;;;;;;;9.07;6.83;;;18.10;1.00;;;;;;5117207;28;20176;-50
2023/08/12 03:45:15;;;;;;;8.23;6.00;;;18.00;1.00;;;;;;5117214;28;20305;-50
2023/08/12 03:47:41;;;;;;;7.57;6.83;;;18.00;99.90;;;;;;5117160;28;20190;-51
2023/08/12 03:50:07;;;;;;;7.37;6.53;;;18.00;1.00;;;;;;5117463;28;20187;-50
2023/08/12 03:52:32;;;;;;;8.40;7.00;;;17.90;1.00;;;;;;5117148;28;20741;-50
2023/08/12 03:54:58;;;;;;;6.60;6.00;;;17.80;11.20;;;;;;5117013;28;20662;-50
2023/08/12 03:57:23;;;;;;;8.00;6.70;;;17.80;1.00;;;;;;5116387;28;20191;-50
2023/08/12 03:59:49;;;;;;;10.20;7.67;;;17.80;1.00;;;;;;5116652;28;20187;-50
2023/08/12 04:02:14;;;;;;;8.30;7.00;;;17.80;99.90;;;;;;5117114;28;20504;-51
2023/08/12 04:04:42;;;;;;;8.43;7.53;;;17.70;99.90;;;;;;5116948;28;20278;-50
2023/08/12 04:07:08;;;;;;;11.73;7.30;;;17.80;1.00;;;;;;5117212;28;20183;-50
2023/08/12 04:09:33;;;;;;;8.83;6.70;;;17.80;1.00;;;;;;5116612;28;20897;-50
2023/08/12 04:11:59;;;;;;;7.30;6.60;;;17.80;99.90;;;;;;5116685;28;20302;-50
2023/08/12 04:14:25;;;;;;;7.27;6.47;;;17.80;1.00;;;;;;5116473;28;20190;-49
2023/08/12 04:16:50;;;;;;;9.40;7.00;;;17.80;1.00;;;;;;5116441;28;20179;-50
2023/08/12 04:19:16;;;;;;;8.57;6.63;;;17.80;1.00;;;;;;5116986;28;20217;-50
2023/08/12 04:21:45;;;;;;;10.70;6.83;;;17.80;99.90;;;;;;5115664;28;20232;-50
2023/08/12 04:24:11;;;;;;;10.43;6.50;;;17.70;99.90;;;;;;5116837;28;20185;-50
2023/08/12 04:26:37;;;;;;;8.17;7.20;;;17.70;59.50;;;;;;5116528;28;20459;-50
2023/08/12 04:29:02;;;;;;;15.43;6.93;;;17.80;99.90;;;;;;5116700;28;20180;-50
2023/08/12 04:31:28;;;;;;;7.77;6.90;;;17.80;99.90;;;;;;5116447;28;20551;-50
2023/08/12 04:33:53;;;;;;;10.87;6.40;;;17.80;99.90;;;;;;5116049;28;20180;-50
2023/08/12 04:36:19;;;;;;;10.67;7.70;;;17.80;3.10;;;;;;5115358;28;20271;-50
2023/08/12 04:38:45;;;;;;;10.13;6.80;;;17.80;1.00;;;;;;5115786;28;20187;-50
2023/08/12 04:41:10;;;;;;;10.10;7.10;;;17.80;1.00;;;;;;5116145;28;20179;-50
2023/08/12 04:43:36;;;;;;;9.10;6.70;;;17.80;51.70;;;;;;5115989;28;20557;-51
2023/08/12 04:46:02;;;;;;;8.43;6.90;;;17.80;99.90;;;;;;5116020;28;20200;-50
2023/08/12 04:48:27;;;;;;;11.43;6.93;;;17.80;99.90;;;;;;5116085;28;20211;-50
2023/08/12 04:50:54;;;;;;;10.23;7.10;;;17.90;99.90;;;;;;5114785;28;20193;-51
2023/08/12 04:53:20;;;;;;;12.60;7.37;;;17.90;99.90;;;;;;5115904;28;20186;-50
2023/08/12 04:55:49;;;;;;;7.23;6.30;;;18.00;99.90;;;;;;5115442;28;20819;-50
2023/08/12 04:58:14;;;;;;;14.13;6.77;;;18.00;1.00;;;;;;5115854;28;20174;-50
2023/08/12 05:00:40;;;;;;;11.20;6.90;;;18.10;1.00;;;;;;5115753;28;20497;-50
2023/08/12 05:03:06;;;;;;;7.60;6.80;;;18.10;99.90;;;;;;5115716;28;20614;-50
2023/08/12 05:05:31;;;;;;;9.10;6.80;;;18.10;1.00;;;;;;5115472;28;20260;-50
2023/08/12 05:07:57;;;;;;;9.33;6.60;;;18.20;99.90;;;;;;5115758;28;20271;-50
2023/08/12 05:10:23;;;;;;;12.00;7.17;;;18.20;99.90;;;;;;5115417;28;20228;-50
2023/08/12 05:12:50;;;;;;;8.87;6.33;;;18.20;99.90;;;;;;5115240;28;20194;-51
2023/08/12 05:15:16;;;;;;;8.70;6.87;;;18.30;1.00;;;;;;5115526;28;20188;-51
2023/08/12 05:17:41;;;;;;;7.60;6.90;;;18.30;1.00;;;;;;5115375;28;20467;-51
2023/08/12 05:20:08;;;;;;;8.67;7.33;;;18.40;1.00;;;;;;5115378;28;20441;-50
2023/08/12 05:22:34;;;;;;;9.73;6.87;;;18.40;99.90;;;;;;5115152;28;20675;-50
2023/08/12 05:24:59;;;;;;;11.93;8.10;;;18.40;99.90;;;;;;5115516;28;20544;-50
2023/08/12 05:27:25;;;;;;;9.10;7.77;;;18.40;99.90;;;;;;5115769;28;20189;-50
2023/08/12 05:29:50;;;;;;;10.90;8.20;;;18.40;1.00;;;;;;5115502;28;20206;-50
2023/08/12 05:32:16;;;;;;;9.80;7.60;;;18.50;1.00;;;;;;5115004;28;20263;-50
2023/08/12 05:34:41;;;;;;;10.60;7.63;;;18.50;1.00;;;;;;5115239;28;20187;-50
2023/08/12 05:37:07;;;;;;;10.23;8.13;;;18.50;1.00;;;;;;5115101;28;20180;-50
2023/08/12 05:39:32;;;;;;;10.53;7.80;;;18.50;99.90;;;;;;5115209;28;20180;-50
2023/08/12 05:41:58;;;;;;;14.57;8.90;;;18.50;1.00;;;;;;5115107;28;20687;-50
2023/08/12 05:44:24;;;;;;;9.40;8.40;;;18.50;99.90;;;;;;5114798;28;20196;-51
2023/08/12 05:46:49;;;;;;;9.83;8.13;;;18.50;1.00;;;;;;5114863;28;20216;-50
2023/08/12 05:49:15;;;;;;;14.50;8.53;;;18.50;1.00;;;;;;5115253;28;20187;-50
2023/08/12 05:51:41;;;;;;;9.03;8.20;;;18.50;1.00;;;;;;5115071;28;20190;-51
2023/08/12 05:54:07;;;;;;;10.30;9.00;;;18.60;1.00;;;;;;5113713;28;20232;-51
2023/08/12 05:56:32;;;;;;;10.80;9.70;;;18.60;67.40;;;;;;5114691;28;20493;-50
2023/08/12 05:58:58;;;;;;;14.87;9.60;;;18.60;99.90;;;;;;5114338;28;20180;-50
2023/08/12 06:01:23;;;;;;;14.13;10.60;;;18.60;99.90;;;;;;5114300;28;20181;-50
2023/08/12 06:03:49;;;;;;;10.50;8.60;;;18.70;99.90;;;;;;5114658;28;20625;-50
2023/08/12 06:06:15;;;;;;;16.27;10.40;;;18.70;99.90;;;;;;5114693;28;20207;-50
2023/08/12 06:08:40;;;;;;;12.37;9.70;;;18.70;99.90;;;;;;5114527;28;20192;-50
2023/08/12 06:11:06;;;;;;;13.40;10.00;;;18.70;99.90;;;;;;5114585;28;20184;-50
2023/08/12 06:13:31;;;;;;;12.83;11.43;;;18.80;99.90;;;;;;5114087;28;20245;-50
2023/08/12 06:15:57;;;;;;;20.00;11.60;;;18.70;99.90;;;;;;5114206;28;20181;-50
2023/08/12 06:18:23;;;;;;;11.53;10.27;;;18.80;99.90;;;;;;5113640;28;20624;-50
2023/08/12 06:20:48;;;;;;;14.63;12.17;;;18.70;99.90;;;;;;5113916;28;20193;-50
2023/08/12 06:23:15;;;;;;;16.33;12.70;;;18.70;99.90;;;;;;5114473;28;20172;-50
2023/08/12 06:25:42;;;;;;;11.63;10.53;;;18.70;99.90;;;;;;5114099;28;20208;-50
2023/08/12 06:28:09;;;;;;;17.00;12.90;;;18.70;99.90;;;;;;5114503;28;20434;-50
2023/08/12 06:30:34;;;;;;;17.20;13.40;;;18.70;99.90;;;;;;5113812;28;20814;-50
2023/08/12 06:33:00;;;;;;;19.10;12.50;;;18.70;99.90;;;;;;5113516;28;20471;-51
2023/08/12 06:35:25;;;;;;;17.20;14.20;;;18.70;99.90;;;;;;5114073;28;20176;-50
2023/08/12 06:37:51;;;;;;;21.60;14.87;;;18.80;99.90;;;;;;5114034;28;20180;-50
2023/08/12 06:40:17;;;;;;;16.10;14.40;;;18.80;99.90;;;;;;5113416;28;20184;-50
2023/08/12 06:42:42;;;;;;;18.87;14.77;;;18.80;99.90;;;;;;5114493;28;20183;-50
2023/08/12 06:45:09;;;;;;;21.43;16.17;;;18.90;99.90;;;;;;5114498;28;20208;-50
2023/08/12 06:47:34;;;;;;;18.30;14.83;;;18.90;99.90;;;;;;5114395;28;20271;-50
2023/08/12 06:50:00;;;;;;;17.57;15.70;;;19.00;99.90;;;;;;5114499;28;20454;-50
2023/08/12 06:52:25;;;;;;;25.73;16.90;;;18.90;99.90;;;;;;5114285;28;20729;-50
2023/08/12 06:54:51;;;;;;;23.03;15.63;;;19.00;99.90;;;;;;5114157;28;20225;-50
2023/08/12 06:57:17;;;;;;;19.03;15.57;;;19.00;99.90;;;;;;5113912;28;20288;-50
2023/08/12 06:59:42;;;;;;;18.63;14.90;;;19.10;99.90;;;;;;5114116;28;20680;-50
2023/08/12 07:02:08;;;;;;;22.73;17.90;;;19.20;99.90;;;;;;5113716;28;20531;-51
2023/08/12 07:04:33;;;;;;;19.50;17.20;;;19.30;99.90;;;;;;5113018;28;20189;-50
2023/08/12 07:06:59;;;;;;;19.43;16.23;;;19.40;99.90;;;;;;5114240;28;20189;-50
2023/08/12 07:09:25;;;;;;;22.50;18.20;;;19.50;99.90;;;;;;5114044;28;20628;-50
2023/08/12 07:11:50;;;;;;;22.33;17.67;;;19.60;99.90;;;;;;5114137;28;20624;-50
2023/08/12 07:14:16;;;;;;;22.20;17.10;;;19.70;99.90;;;;;;5115736;28;20184;-50
2023/08/12 07:16:42;;;;;;;22.10;17.43;;;19.80;99.90;;;;;;5117808;28;20188;-50
2023/08/12 07:19:07;;;;;;;17.40;15.40;;;19.90;99.90;;;;;;5117493;28;20180;-51
2023/08/12 07:21:33;;;;;;;18.90;16.90;;;20.00;99.90;;;;;;5116920;28;20236;-50
2023/08/12 07:23:58;;;;;;;23.23;17.80;;;20.10;99.90;;;;;;5117988;28;20187;-50
2023/08/12 07:26:24;;;;;;;22.63;17.67;;;20.30;99.90;;;;;;5117246;28;20239;-50
2023/08/12 07:28:49;;;;;;;18.33;16.33;;;20.30;99.90;;;;;;5117833;28;20646;-49
2023/08/12 07:31:15;;;;;;;18.27;15.40;;;20.40;99.90;;;;;;5117256;28;20180;-49
2023/08/12 07:33:41;;;;;;;21.63;16.90;;;20.50;99.90;;;;;;5116678;28;20204;-49
2023/08/12 07:36:06;;;;;;;17.77;15.73;;;20.60;99.90;;;;;;5117281;28;20180;-49
2023/08/12 07:38:32;;;;;;;21.67;16.20;;;20.70;99.90;;;;;;5117487;28;20184;-51
2023/08/12 07:40:57;;;;;;;20.97;15.80;;;20.90;99.90;;;;;;5117130;28;20259;-49
2023/08/12 07:43:23;;;;;;;16.53;14.40;;;21.00;99.90;;;;;;5117030;28;20192;-49
2023/08/12 07:45:53;;;;;;;19.63;14.63;;;21.10;99.90;;;;;;5117056;28;20192;-49
2023/08/12 07:48:19;;;;;;;15.83;13.87;;;21.20;99.90;;;;;;5117267;28;20185;-49
2023/08/12 07:50:48;;;;;;;20.07;14.43;;;21.30;99.90;;;;;;5117179;28;20555;-49
2023/08/12 07:53:15;;;;;;;18.00;16.07;;;21.30;99.90;;;;;;5116811;28;20406;-51
2023/08/12 07:55:41;;;;;;;15.73;13.90;;;21.40;99.90;;;;;;5117116;28;20468;-49
2023/08/12 07:58:07;;;;;;;18.30;12.63;;;21.50;99.90;;;;;;5116810;28;20494;-49
2023/08/12 08:00:33;;;;;;;16.00;13.80;;;21.50;99.90;;;;;;5116983;28;20515;-49
2023/08/12 08:02:59;;;;;;;21.53;14.90;;;21.50;99.90;;;;;;5117288;28;20188;-49
2023/08/12 08:05:24;;;;;;;17.50;13.67;;;21.70;99.90;;;;;;5116471;28;20458;-49
2023/08/12 08:07:50;;;;;;;17.10;13.67;;;21.80;99.90;;;;;;5117097;28;20187;-50
2023/08/12 08:10:15;;;;;;;14.73;13.23;;;21.80;99.90;;;;;;5116929;28;20678;-49
2023/08/12 08:12:41;;;;;;;15.37;11.90;;;21.90;99.90;;;;;;5116964;28;20183;-49
2023/08/12 08:15:07;;;;;;;16.27;13.40;;;22.00;99.90;;;;;;5116670;28;20185;-49
2023/08/12 08:17:32;;;;;;;24.00;13.40;;;22.00;48.60;;;;;;5116516;28;20532;-49
2023/08/12 08:19:58;;;;;;;16.00;14.30;;;22.10;18.60;;;;;;5115106;28;20682;-51
2023/08/12 08:22:24;;;;;;;16.90;13.43;;;22.10;19.90;;;;;;5116082;28;20225;-49
2023/08/12 08:24:50;;;;;;;16.00;12.70;;;22.20;1.00;;;;;;5116427;28;20177;-49
2023/08/12 08:27:15;;;;;;;15.00;13.27;;;22.30;1.00;;;;;;5116512;28;20419;-49
2023/08/12 08:29:41;;;;;;;15.87;12.50;;;22.40;41.20;;;;;;5116604;28;20181;-49
2023/08/12 08:32:06;;;;;;;19.37;13.43;;;22.50;39.70;;;;;;5116057;28;20173;-50
2023/08/12 08:34:32;;;;;;;17.90;13.80;;;22.60;1.00;;;;;;5116218;28;20196;-50
2023/08/12 08:36:57;;;;;;;17.40;13.00;;;22.80;1.00;;;;;;5115705;28;20249;-50
2023/08/12 08:39:23;;;;;;;13.67;11.67;;;22.80;1.00;;;;;;5116343;28;20180;-50
2023/08/12 08:41:49;;;;;;;15.73;12.90;;;22.90;1.00;;;;;;5116482;28;20264;-51
2023/08/12 08:44:17;;;;;;;15.10;11.60;;;23.00;1.00;;;;;;5116178;28;21026;-50
2023/08/12 08:46:45;;;;;;;14.90;11.00;;;23.00;99.90;;;;;;5116214;28;20213;-50
2023/08/12 08:49:11;;;;;;;11.60;9.90;;;22.90;99.90;;;;;;5116403;28;20509;-50
2023/08/12 08:51:37;;;;;;;13.60;11.57;;;22.90;1.00;;;;;;5116534;28;20448;-50
2023/08/12 08:54:06;;;;;;;13.80;10.80;;;22.90;1.00;;;;;;5115852;28;20977;-51
2023/08/12 08:56:32;;;;;;;13.97;10.60;;;22.90;99.90;;;;;;5115553;28;20645;-50
2023/08/12 08:58:58;;;;;;;14.00;10.67;;;22.70;99.90;;;;;;5115266;28;20420;-50
2023/08/12 09:01:24;;;;;;;15.03;11.87;;;22.70;99.90;;;;;;5115758;28;20415;-50
2023/08/12 09:03:53;;;;;;;16.83;11.87;;;22.60;99.90;;;;;;5115732;28;20468;-50
2023/08/12 09:06:23;;;;;;;14.47;9.73;;;22.60;99.90;;;;;;5116053;28;20216;-50
2023/08/12 09:08:52;;;;;;;14.17;10.30;;;22.70;95.20;;;;;;5115665;28;20399;-50
2023/08/12 09:11:18;;;;;;;12.93;11.30;;;22.60;26.70;;;;;;5115628;28;20406;-50
2023/08/12 09:13:45;;;;;;;11.97;10.37;;;22.50;1.00;;;;;;5115240;28;20776;-50
2023/08/12 09:16:10;;;;;;;15.00;10.97;;;22.60;99.90;;;;;;5115147;28;20918;-50
2023/08/12 09:18:37;;;;;;;14.73;11.87;;;22.60;99.90;;;;;;5115408;28;20410;-50
2023/08/12 09:21:03;;;;;;;18.77;12.20;;;22.60;1.00;;;;;;5114740;28;20320;-50
2023/08/12 09:23:44;;;;;;;16.73;11.83;;;22.50;1.00;;;;;;5115577;28;20403;-50
2023/08/12 09:26:23;;;;;;;14.60;10.47;;;22.40;1.00;;;;;;5115634;28;20968;-50
2023/08/12 09:28:49;;;;;;;13.43;10.10;;;22.30;99.90;;;;;;5115461;28;20467;-50
2023/08/12 09:31:26;;;;;;;12.10;9.10;;;22.10;99.90;;;;;;5115601;28;20754;-52
2023/08/12 09:33:52;;;;;;;8.03;7.23;;;22.00;1.00;;;;;;5115125;28;20206;-50
2023/08/12 09:36:20;;;;;;;9.20;7.63;;;21.90;99.90;;;;;;5114567;28;20426;-50
2023/08/12 09:38:46;;;;;;;9.00;6.83;;;21.90;99.90;;;;;;5114776;28;20785;-51
2023/08/12 09:41:11;;;;;;;12.93;7.13;;;21.90;99.90;;;;;;5114805;28;20502;-51
2023/08/12 09:43:42;;;;;;;11.03;7.30;;;21.80;99.90;;;;;;5114807;28;20564;-51
2023/08/12 09:46:12;;;;;;;7.80;7.00;;;21.70;99.90;;;;;;5115302;28;20229;-50
2023/08/12 09:48:38;;;;;;;13.70;8.93;;;21.70;1.00;;;;;;5115071;28;20463;-51
2023/08/12 09:51:03;;;;;;;11.70;9.50;;;21.70;1.00;;;;;;5115169;28;20407;-50
2023/08/12 09:53:29;;;;;;;11.67;9.20;;;21.70;1.00;;;;;;5114721;28;20176;-50
2023/08/12 09:55:59;;;;;;;17.17;11.30;;;21.70;99.90;;;;;;5114504;28;20208;-50
2023/08/12 09:58:25;;;;;;;16.60;13.60;;;21.70;22.70;;;;;;5114420;28;20429;-50
2023/08/12 10:00:52;;;;;;;16.30;12.33;;;21.70;99.90;;;;;;5114645;28;20449;-50
2023/08/12 10:03:19;;;;;;;19.17;14.80;;;21.80;26.90;;;;;;5115072;28;20413;-50
2023/08/12 10:05:45;;;;;;;19.23;16.40;;;21.80;99.90;;;;;;5114512;28;20458;-50
2023/08/12 10:08:13;;;;;;;18.97;14.60;;;21.90;1.00;;;;;;5114925;28;20419;-50
2023/08/12 10:10:39;;;;;;;22.23;16.50;;;22.00;1.00;;;;;;5114781;28;20418;-50
2023/08/12 10:13:07;;;;;;;16.70;14.90;;;22.10;1.00;;;;;;5114468;28;20422;-50
2023/08/12 10:15:33;;;;;;;20.50;15.53;;;22.20;1.00;;;;;;5114116;28;20487;-51
2023/08/12 10:17:59;;;;;;;19.77;15.30;;;22.30;99.90;;;;;;5114441;28;20437;-50
2023/08/12 10:20:27;;;;;;;19.90;16.90;;;22.40;99.90;;;;;;5114404;28;20491;-50
2023/08/12 10:22:54;;;;;;;21.60;17.33;;;22.50;99.90;;;;;;5114019;28;20466;-50
2023/08/12 10:25:23;;;;;;;26.13;16.17;;;22.60;69.20;;;;;;5114503;28;20458;-52
2023/08/12 10:27:49;;;;;;;23.40;17.27;;;22.60;1.00;;;;;;5114355;28;20436;-51
2023/08/12 10:30:15;;;;;;;22.43;18.17;;;22.60;1.00;;;;;;5114469;28;20403;-52
2023/08/12 10:32:41;;;;;;;20.50;15.23;;;22.60;99.90;;;;;;5113980;28;20833;-51
2023/08/12 10:35:08;;;;;;;23.37;17.70;;;22.50;1.00;;;;;;5114125;28;20184;-51
2023/08/12 10:37:34;;;;;;;20.17;17.07;;;22.50;85.30;;;;;;5114295;28;20425;-52
2023/08/12 10:40:07;;;;;;;23.33;16.60;;;22.50;1.00;;;;;;5114301;28;20501;-50
2023/08/12 10:42:47;;;;;;;19.10;14.97;;;22.50;99.90;;;;;;5114049;28;20409;-50
2023/08/12 10:45:14;;;;;;;18.43;14.53;;;22.40;99.90;;;;;;5114173;28;20476;-49
2023/08/12 10:48:00;;;;;;;17.70;14.33;;;22.40;1.00;;;;;;5114341;28;20439;-50
2023/08/12 10:50:26;;;;;;;18.73;13.03;;;22.40;99.90;;;;;;5118546;28;20403;-50
2023/08/12 10:52:55;;;;;;;19.13;13.40;;;22.40;1.00;;;;;;5118046;28;20747;-50
2023/08/12 10:55:25;;;;;;;15.40;12.80;;;22.30;99.90;;;;;;5118337;28;20414;-50
2023/08/12 10:57:53;;;;;;;19.40;12.37;;;22.30;1.00;;;;;;5116598;28;20784;-50
2023/08/12 11:00:26;;;;;;;19.93;12.00;;;22.30;99.90;;;;;;5117919;28;20429;-49
2023/08/12 11:02:56;;;;;;;16.40;11.03;;;22.30;1.00;;;;;;5117837;28;20917;-50
2023/08/12 11:05:23;;;;;;;9.17;8.00;;;22.40;1.00;;;;;;5118340;28;20458;-50
2023/08/12 11:07:56;;;;;;;10.13;7.43;;;22.50;1.00;;;;;;5117433;28;20446;-50
2023/08/12 11:10:25;;;;;;;9.70;8.07;;;22.80;99.90;;;;;;5118179;28;20399;-50
2023/08/12 11:12:56;;;;;;;8.20;7.40;;;23.10;1.00;;;;;;5117877;28;20430;-50
2023/08/12 11:15:45;;;;;;;13.80;7.63;;;23.50;1.00;;;;;;5117651;28;20430;-50
2023/08/12 11:18:17;;;;;;;7.70;6.90;;;23.90;1.00;;;;;;5107204;28;20446;-50
2023/08/12 11:20:44;;;;;;;9.23;7.13;;;24.10;99.90;;;;;;5117682;28;20414;-49
2023/08/12 11:23:10;;;;;;;9.13;6.63;;;24.00;99.90;;;;;;5117889;28;20440;-49
2023/08/12 11:25:38;;;;;;;8.70;7.30;;;23.80;99.90;;;;;;5117780;28;20458;-49
2023/08/12 11:28:05;;;;;;;10.13;6.77;;;23.40;99.90;;;;;;5116910;28;20446;-49
2023/08/12 11:30:30;;;;;;;8.30;5.53;;;23.00;99.90;;;;;;5117751;28;20411;-49
2023/08/12 11:32:56;;;;;;;7.17;6.10;;;22.80;99.90;;;;;;5116263;28;20787;-50
2023/08/12 11:35:23;;;;;;;5.77;5.27;;;22.50;99.90;;;;;;5117523;28;20187;-50
2023/08/12 11:37:55;;;;;;;5.33;4.83;;;22.20;1.00;;;;;;5117403;28;20177;-50
2023/08/12 11:40:21;;;;;;;10.23;5.40;;;22.00;1.00;;;;;;5117478;28;20411;-49
2023/08/12 11:42:49;;;;;;;8.17;5.67;;;21.80;99.90;;;;;;5117249;28;20432;-49
2023/08/12 11:45:19;;;;;;;118.43;84.80;;;21.70;1.00;;;;;;5115830;28;20470;-50
2023/08/12 11:47:52;;;;;;;13.17;9.60;;;21.60;1.00;;;;;;5117525;28;20399;-50
2023/08/12 11:50:19;;;;;;;8.47;6.10;;;21.50;1.00;;;;;;5117496;28;20408;-50
2023/08/12 11:52:46;;;;;;;7.27;6.57;;;21.40;1.00;;;;;;5117306;28;20418;-50
2023/08/12 11:55:12;;;;;;;9.27;6.93;;;21.40;16.90;;;;;;5116825;28;20544;-50
2023/08/12 11:57:39;;;;;;;7.83;6.17;;;21.40;99.90;;;;;;5116212;28;20442;-50
2023/08/12 12:00:13;;;;;;;8.57;7.13;;;21.30;1.00;;;;;;5116095;28;20422;-50
2023/08/12 12:02:57;;;;;;;11.30;7.57;;;21.20;99.90;;;;;;5113341;28;20431;-50
2023/08/12 12:05:26;;;;;;;12.63;7.70;;;21.10;1.00;;;;;;5116203;28;20819;-50
2023/08/12 12:07:52;;;;;;;12.37;7.97;;;21.10;18.70;;;;;;5116455;28;20429;-50
2023/08/12 12:10:25;;;;;;;12.00;8.00;;;21.00;99.90;;;;;;5116096;28;20480;-49
2023/08/12 12:12:51;;;;;;;10.93;7.40;;;21.00;1.00;;;;;;5114435;28;20508;-50
2023/08/12 12:15:16;;;;;;;17.53;12.10;;;21.00;1.00;;;;;;5116321;28;20431;-50
2023/08/12 12:17:42;;;;;;;9.97;8.80;;;20.90;17.10;;;;;;5115730;28;20184;-50
2023/08/12 12:20:11;;;;;;;10.70;8.80;;;21.00;99.90;;;;;;5114643;28;20279;-50
2023/08/12 12:22:38;;;;;;;9.23;7.93;;;21.00;99.90;;;;;;5116159;28;20228;-50
2023/08/12 12:25:08;;;;;;;10.20;9.20;;;21.00;99.90;;;;;;5115286;28;20462;-50
2023/08/12 12:27:34;;;;;;;14.07;9.40;;;21.10;99.90;;;;;;5116707;28;20403;-50
2023/08/12 12:30:00;;;;;;;12.07;8.87;;;21.20;99.90;;;;;;5115533;28;20438;-50
2023/08/12 12:32:26;;;;;;;10.13;8.40;;;21.40;99.90;;;;;;5116296;28;20422;-49
2023/08/12 12:34:53;;;;;;;12.90;7.87;;;21.60;99.90;;;;;;5115035;28;20767;-50
2023/08/12 12:37:18;;;;;;;8.40;7.57;;;21.70;99.90;;;;;;5115092;28;20189;-50